This is the latest recevied weather packets stored in our database for station/object OK4AB-10. If no packets are shown the sender has not sent any weather packets the latest 10 day(s).
| Time | Temp. | Humidity | Pressure | Rain* | Wind** | Luminosity | Snow |
|---|---|---|---|---|---|---|---|
| 1777939870 | 28.33° C | 45% | 1012.5 hPa | - | - | - | - |
| 1777939810 | 27.78° C | 45% | 1011.1 hPa | - | - | - | - |
| 1777939750 | 27.78° C | 45% | 1011.7 hPa | - | - | - | - |
| 1777939690 | 27.78° C | 46% | 1011.8 hPa | - | - | - | - |
| 1777939630 | 27.78° C | 46% | 969.7 hPa | - | - | - | - |
| 1777939570 | 27.78° C | 46% | 969.7 hPa | - | - | - | - |
| 1777939510 | 27.22° C | 46% | 969.7 hPa | - | - | - | - |
| 1777939450 | 27.22° C | 47% | 969.7 hPa | - | - | - | - |
| 1777939390 | 27.22° C | 47% | 969.7 hPa | - | - | - | - |
| 1777939330 | 27.22° C | 47% | 969.7 hPa | - | - | - | - |
| 1777939270 | 26.67° C | 47% | 969.7 hPa | - | - | - | - |
| 1777939210 | 26.67° C | 48% | 969.7 hPa | - | - | - | - |
| 1777939150 | 26.67° C | 48% | 969.7 hPa | - | - | - | - |
| 1777939090 | 26.11° C | 48% | 969.7 hPa | - | - | - | - |
| 1777939030 | 26.11° C | 49% | 969.8 hPa | - | - | - | - |
| 1777938970 | 26.11° C | 49% | 969.8 hPa | - | - | - | - |
| 1777938910 | 25.56° C | 49% | 969.8 hPa | - | - | - | - |
| 1777938850 | 25.56° C | 50% | 969.8 hPa | - | - | - | - |
| 1777938789 | 25.56° C | 50% | 969.8 hPa | - | - | - | - |
| 1777938730 | 25° C | 50% | 969.8 hPa | - | - | - | - |
| 1777938669 | 25° C | 50% | 969.8 hPa | - | - | - | - |
| 1777938609 | 25° C | 51% | 969.8 hPa | - | - | - | - |
| 1777938549 | 24.44° C | 50% | 969.8 hPa | - | - | - | - |
| 1777911451 | 28.33° C | 42% | 1013 hPa | - | - | - | - |
| 1777911391 | 28.33° C | 42% | 1013.7 hPa | - | - | - | - |
* Rain since midnight (hover to see other rain measurements)
** Current wind speed in m/s (hover to see current wind gust speed)